Time;durP1;ratioP1;P1;durP2;ratioP2;P2;SDS_P1;SDS_P2;PMS_P1;PMS_P2;Temp;Humidity;BMP_temperature;BMP_pressure;BME280_temperature;BME280_humidity;BME280_pressure;Samples;Min_cycle;Max_cycle;Signal;HPM_P1;HPM_P2
2021/12/31 00:00:36;;;;;;;4.63;3.57;;;12.60;99.90;;;;;;5094862;28;20701;-55
2021/12/31 00:03:05;;;;;;;4.80;3.30;;;12.60;99.90;;;;;;5092296;28;20617;-55
2021/12/31 00:05:33;;;;;;;3.70;3.30;;;12.60;99.90;;;;;;5092573;28;20221;-54
2021/12/31 00:08:01;;;;;;;3.67;2.90;;;12.60;99.90;;;;;;5094073;28;20656;-55
2021/12/31 00:10:30;;;;;;;4.33;3.50;;;12.60;99.90;;;;;;5093840;28;20258;-55
2021/12/31 00:12:58;;;;;;;4.87;3.17;;;12.60;99.90;;;;;;5104043;28;20216;-54
2021/12/31 00:15:26;;;;;;;3.57;2.97;;;12.60;99.90;;;;;;5113335;28;20224;-54
2021/12/31 00:17:55;;;;;;;3.53;3.20;;;12.60;99.90;;;;;;5113499;28;20203;-54
2021/12/31 00:20:25;;;;;;;4.07;3.30;;;12.50;99.90;;;;;;5113210;28;20203;-53
2021/12/31 00:23:05;;;;;;;3.20;2.83;;;12.50;99.90;;;;;;5112284;28;20211;-51
2021/12/31 00:25:37;;;;;;;3.83;3.20;;;12.50;99.90;;;;;;5106243;28;20224;-53
2021/12/31 00:28:05;;;;;;;4.20;3.20;;;12.50;99.90;;;;;;5119326;27;20207;-54
2021/12/31 00:30:34;;;;;;;4.07;3.00;;;12.50;99.90;;;;;;5110022;27;20690;-52
2021/12/31 00:33:04;;;;;;;3.97;3.60;;;12.50;99.90;;;;;;5094419;28;20235;-52
2021/12/31 00:35:34;;;;;;;5.83;3.60;;;12.50;99.90;;;;;;5112513;28;20625;-54
2021/12/31 00:38:02;;;;;;;4.17;3.40;;;12.50;99.90;;;;;;5112858;28;20207;-56
2021/12/31 00:40:30;;;;;;;4.17;3.53;;;12.50;99.90;;;;;;5112926;28;20729;-54
2021/12/31 00:42:58;;;;;;;7.97;3.53;;;12.50;99.90;;;;;;5113326;28;20207;-54
2021/12/31 00:45:26;;;;;;;4.10;3.70;;;12.50;99.90;;;;;;5112778;28;20739;-53
2021/12/31 00:47:55;;;;;;;5.73;4.13;;;12.50;99.90;;;;;;5112995;28;20203;-53
2021/12/31 00:50:25;;;;;;;4.20;3.80;;;12.50;99.90;;;;;;5113089;28;20208;-53
2021/12/31 00:52:53;;;;;;;4.27;3.77;;;12.50;99.90;;;;;;5112316;28;20253;-54
2021/12/31 00:55:21;;;;;;;4.30;3.50;;;12.50;99.90;;;;;;5112597;28;20246;-54
2021/12/31 00:57:49;;;;;;;3.40;3.10;;;12.50;99.90;;;;;;5101221;28;20685;-54
2021/12/31 01:00:18;;;;;;;3.33;2.40;;;12.50;99.90;;;;;;5107154;28;20204;-55
2021/12/31 01:02:47;;;;;;;4.10;2.40;;;12.50;99.90;;;;;;5113343;28;20203;-54
2021/12/31 01:05:16;;;;;;;4.93;2.00;;;12.50;99.90;;;;;;5112788;28;20303;-53
2021/12/31 01:07:46;;;;;;;2.00;1.90;;;12.50;99.90;;;;;;5112680;28;20744;-53
2021/12/31 01:10:17;;;;;;;2.37;2.17;;;12.50;99.90;;;;;;5112158;28;20307;-54
2021/12/31 01:12:46;;;;;;;2.40;2.20;;;12.50;99.90;;;;;;5112136;28;20628;-53
2021/12/31 01:15:20;;;;;;;2.83;2.50;;;12.50;99.90;;;;;;5112144;28;20274;-54
2021/12/31 01:18:14;;;;;;;2.53;2.33;;;12.50;99.90;;;;;;5112582;28;20207;-56
2021/12/31 01:20:40;;;;;;;2.90;2.10;;;12.50;99.90;;;;;;5112127;28;20256;-54
2021/12/31 01:23:10;;;;;;;5.23;2.60;;;12.50;99.90;;;;;;5112357;28;20280;-54
2021/12/31 01:25:38;;;;;;;4.13;2.30;;;12.50;99.90;;;;;;5116881;27;20613;-52
2021/12/31 01:28:07;;;;;;;2.10;1.90;;;12.50;99.90;;;;;;5132916;27;20236;-52
2021/12/31 01:30:35;;;;;;;1.97;1.60;;;12.50;99.90;;;;;;5108573;27;20251;-55
2021/12/31 01:33:04;;;;;;;2.30;2.00;;;12.50;99.90;;;;;;5111536;28;20672;-54
2021/12/31 01:35:32;;;;;;;2.73;2.00;;;12.40;99.90;;;;;;5111983;28;20219;-52
2021/12/31 01:38:00;;;;;;;2.13;1.97;;;12.40;99.90;;;;;;5112240;28;20249;-54
2021/12/31 01:40:30;;;;;;;2.27;2.00;;;12.50;99.90;;;;;;5112429;28;20203;-54
2021/12/31 01:42:58;;;;;;;2.20;1.90;;;12.50;99.90;;;;;;5111915;28;20733;-53
2021/12/31 01:45:30;;;;;;;2.33;1.90;;;12.40;99.90;;;;;;5111725;28;20700;-55
2021/12/31 01:48:07;;;;;;;4.97;1.97;;;12.40;99.90;;;;;;5111999;28;20203;-52
2021/12/31 01:50:36;;;;;;;3.80;1.70;;;12.50;99.90;;;;;;5111381;28;20667;-54
2021/12/31 01:53:05;;;;;;;4.13;1.70;;;12.40;99.90;;;;;;5118964;27;20203;-55
2021/12/31 01:55:35;;;;;;;2.07;1.80;;;12.50;99.90;;;;;;5111170;28;20223;-55
2021/12/31 01:58:05;;;;;;;2.23;2.00;;;12.40;99.90;;;;;;5112313;28;20207;-53
2021/12/31 02:00:33;;;;;;;3.27;2.00;;;12.40;99.90;;;;;;5111700;28;20656;-54
2021/12/31 02:03:02;;;;;;;1.73;1.50;;;12.40;99.90;;;;;;5111644;28;20668;-54
2021/12/31 02:05:30;;;;;;;2.57;2.13;;;12.40;99.90;;;;;;5111621;28;20231;-53
2021/12/31 02:07:59;;;;;;;4.23;2.10;;;12.40;99.90;;;;;;5111663;28;20576;-54
2021/12/31 02:10:28;;;;;;;2.30;2.10;;;12.40;99.90;;;;;;5111867;28;20199;-53
2021/12/31 02:12:58;;;;;;;3.50;1.90;;;12.30;99.90;;;;;;5111310;28;20574;-53
2021/12/31 02:15:26;;;;;;;3.93;2.03;;;12.30;99.90;;;;;;5112039;28;20223;-54
2021/12/31 02:17:54;;;;;;;2.07;1.70;;;12.30;99.90;;;;;;5111677;28;20257;-55
2021/12/31 02:20:34;;;;;;;2.90;1.80;;;12.30;99.90;;;;;;5111340;28;20664;-55
2021/12/31 02:23:07;;;;;;;2.87;1.90;;;12.30;99.90;;;;;;5126336;27;20274;-55
2021/12/31 02:25:37;;;;;;;3.37;1.80;;;12.20;99.90;;;;;;5128607;27;20226;-55
2021/12/31 02:28:06;;;;;;;2.37;1.90;;;12.30;99.90;;;;;;5117656;28;20199;-54
2021/12/31 02:30:34;;;;;;;2.07;1.77;;;12.30;99.90;;;;;;5131911;28;20207;-55
2021/12/31 02:33:04;;;;;;;2.10;1.90;;;12.30;99.90;;;;;;5093758;28;20578;-53
2021/12/31 02:35:34;;;;;;;2.43;1.83;;;12.20;99.90;;;;;;5110994;28;20220;-53
2021/12/31 02:38:05;;;;;;;2.17;1.70;;;12.30;99.90;;;;;;5111288;28;20204;-52
2021/12/31 02:40:35;;;;;;;2.33;1.87;;;12.20;99.90;;;;;;5112066;28;20192;-55
2021/12/31 02:43:04;;;;;;;4.33;1.90;;;12.20;99.90;;;;;;5110786;28;20203;-53
2021/12/31 02:45:36;;;;;;;3.97;2.17;;;12.20;99.90;;;;;;5110966;28;20258;-52
2021/12/31 02:48:06;;;;;;;3.20;1.97;;;12.20;99.90;;;;;;5111184;28;20289;-56
2021/12/31 02:50:39;;;;;;;2.13;1.80;;;12.20;99.90;;;;;;5111562;28;20633;-55
2021/12/31 02:53:10;;;;;;;2.20;2.00;;;12.20;99.90;;;;;;5117747;28;20195;-55
2021/12/31 02:55:39;;;;;;;2.63;2.07;;;12.20;99.90;;;;;;5110252;28;20219;-53
2021/12/31 02:58:08;;;;;;;2.87;2.57;;;12.20;99.90;;;;;;5111379;28;20204;-54
2021/12/31 03:00:40;;;;;;;7.40;3.43;;;12.10;99.90;;;;;;5100477;28;20613;-54
2021/12/31 03:03:09;;;;;;;5.67;2.97;;;12.10;99.90;;;;;;5115749;28;20204;-56
2021/12/31 03:05:41;;;;;;;4.97;3.43;;;12.10;99.90;;;;;;5114732;28;20231;-55
2021/12/31 03:08:11;;;;;;;4.10;3.43;;;12.10;99.90;;;;;;5114965;28;20225;-55
2021/12/31 03:10:40;;;;;;;7.27;3.67;;;12.10;99.90;;;;;;5115523;28;20203;-52
2021/12/31 03:13:09;;;;;;;4.60;3.37;;;12.10;99.90;;;;;;5114709;28;20204;-53
2021/12/31 03:15:39;;;;;;;5.87;3.60;;;12.20;99.90;;;;;;5115050;28;20228;-53
2021/12/31 03:18:08;;;;;;;4.57;3.60;;;12.10;99.90;;;;;;5119566;27;20325;-52
2021/12/31 03:20:42;;;;;;;5.87;3.80;;;12.10;99.90;;;;;;5134788;27;20203;-54
2021/12/31 03:23:10;;;;;;;6.13;4.10;;;12.20;99.90;;;;;;5109249;27;20665;-55
2021/12/31 03:25:38;;;;;;;7.23;4.20;;;12.20;99.90;;;;;;5100681;28;20222;-55
2021/12/31 03:28:07;;;;;;;5.30;4.10;;;12.20;99.90;;;;;;5127682;27;20200;-54
2021/12/31 03:30:35;;;;;;;4.70;3.70;;;12.20;99.90;;;;;;5123093;27;20252;-56
2021/12/31 03:33:03;;;;;;;5.53;4.20;;;12.20;99.90;;;;;;5094895;28;20940;-55
2021/12/31 03:35:31;;;;;;;5.37;3.87;;;12.20;99.90;;;;;;5101299;28;20250;-54
2021/12/31 03:38:01;;;;;;;4.87;4.00;;;12.20;99.90;;;;;;5114570;28;20208;-53
2021/12/31 03:40:29;;;;;;;4.50;3.87;;;12.20;99.90;;;;;;5114318;28;20248;-55
2021/12/31 03:42:57;;;;;;;5.50;3.83;;;12.20;99.90;;;;;;5114422;28;20238;-55
2021/12/31 03:45:25;;;;;;;8.23;4.40;;;12.20;99.90;;;;;;5114184;28;20660;-55
2021/12/31 03:47:53;;;;;;;7.37;4.50;;;12.10;99.90;;;;;;5114343;28;20702;-55
2021/12/31 03:50:21;;;;;;;4.87;4.33;;;12.20;99.90;;;;;;5114323;28;20578;-54
2021/12/31 03:52:49;;;;;;;8.43;4.70;;;12.20;99.90;;;;;;5113427;28;20215;-54
2021/12/31 03:55:19;;;;;;;9.03;5.13;;;12.20;99.90;;;;;;5114498;28;20655;-55
2021/12/31 03:57:47;;;;;;;7.33;4.70;;;12.20;99.90;;;;;;5114028;28;20281;-53
2021/12/31 04:00:16;;;;;;;6.23;4.57;;;12.20;99.90;;;;;;5114218;28;20200;-52
2021/12/31 04:02:44;;;;;;;6.53;4.80;;;12.20;99.90;;;;;;5114266;28;20241;-53
2021/12/31 04:05:13;;;;;;;12.40;5.20;;;12.20;99.90;;;;;;5114015;28;20306;-53
2021/12/31 04:07:41;;;;;;;8.00;5.13;;;12.20;99.90;;;;;;5113994;28;20204;-53
2021/12/31 04:10:10;;;;;;;8.73;5.80;;;12.20;99.90;;;;;;5113648;28;20287;-56
2021/12/31 04:12:39;;;;;;;12.23;5.50;;;12.20;99.90;;;;;;5113036;28;20680;-55
2021/12/31 04:15:08;;;;;;;10.93;5.70;;;12.10;99.90;;;;;;5124702;27;20207;-53
2021/12/31 04:17:37;;;;;;;11.43;5.83;;;12.10;99.90;;;;;;5134629;27;20561;-54
2021/12/31 04:20:10;;;;;;;12.43;5.97;;;12.10;99.90;;;;;;5096977;27;20612;-53
2021/12/31 04:22:45;;;;;;;11.53;5.67;;;12.10;99.90;;;;;;5093205;28;20241;-54
2021/12/31 04:25:13;;;;;;;11.90;6.00;;;12.10;99.90;;;;;;5096195;28;20630;-52
2021/12/31 04:27:42;;;;;;;10.97;6.30;;;12.10;99.90;;;;;;5113157;28;20216;-54
2021/12/31 04:30:12;;;;;;;13.37;6.60;;;12.10;99.90;;;;;;5113589;28;20203;-55
2021/12/31 04:32:40;;;;;;;12.83;7.97;;;12.10;99.90;;;;;;5096846;28;20262;-54
2021/12/31 04:35:10;;;;;;;9.53;6.20;;;12.10;99.90;;;;;;5096929;28;20272;-54
2021/12/31 04:37:38;;;;;;;12.40;6.33;;;12.10;99.90;;;;;;5113265;28;20196;-54
2021/12/31 04:40:08;;;;;;;13.17;6.00;;;12.10;99.90;;;;;;5097304;28;20204;-53
2021/12/31 04:42:36;;;;;;;10.23;6.27;;;12.10;99.90;;;;;;5093007;28;20240;-54
2021/12/31 04:45:07;;;;;;;9.90;6.27;;;12.10;99.90;;;;;;5092272;28;20204;-53
2021/12/31 04:47:35;;;;;;;12.33;7.10;;;12.20;99.90;;;;;;5092706;28;20266;-52
2021/12/31 04:50:04;;;;;;;10.97;6.63;;;12.20;99.90;;;;;;5092829;28;20204;-54
2021/12/31 04:52:32;;;;;;;11.93;6.67;;;12.10;99.90;;;;;;5096913;28;20549;-54
2021/12/31 04:55:00;;;;;;;9.80;6.33;;;12.10;99.90;;;;;;5112836;28;20583;-55
2021/12/31 04:57:28;;;;;;;14.90;6.77;;;12.10;99.90;;;;;;5105906;28;20742;-52
2021/12/31 04:59:56;;;;;;;11.53;6.20;;;12.20;99.90;;;;;;5103904;28;20229;-53
2021/12/31 05:02:26;;;;;;;13.77;6.43;;;12.10;99.90;;;;;;5132124;27;20199;-55
2021/12/31 05:04:54;;;;;;;12.93;6.40;;;12.10;99.90;;;;;;5112913;28;20282;-54
2021/12/31 05:07:22;;;;;;;11.03;6.23;;;12.10;99.90;;;;;;5111703;28;20249;-55
2021/12/31 05:09:50;;;;;;;9.97;5.97;;;12.10;99.90;;;;;;5112571;28;20203;-55
2021/12/31 05:12:24;;;;;;;10.10;5.60;;;12.10;99.90;;;;;;5131207;27;20242;-54
2021/12/31 05:14:52;;;;;;;11.43;6.00;;;12.10;99.90;;;;;;5120759;27;20674;-55
2021/12/31 05:17:20;;;;;;;13.23;6.73;;;12.10;99.90;;;;;;5091908;28;20200;-56
2021/12/31 05:19:50;;;;;;;12.50;6.00;;;12.10;99.90;;;;;;5091727;28;20246;-54
2021/12/31 05:22:18;;;;;;;14.20;6.70;;;12.10;99.90;;;;;;5107185;28;20630;-55
2021/12/31 05:24:46;;;;;;;13.13;6.73;;;12.10;99.90;;;;;;5112001;28;20227;-54
2021/12/31 05:27:14;;;;;;;11.03;6.07;;;12.10;99.90;;;;;;5117412;27;20876;-56
2021/12/31 05:29:42;;;;;;;10.97;6.00;;;12.00;99.90;;;;;;5132675;27;20203;-55
2021/12/31 05:32:11;;;;;;;13.70;5.73;;;12.00;99.90;;;;;;5132862;27;20207;-56
2021/12/31 05:34:39;;;;;;;14.77;6.20;;;12.10;99.90;;;;;;5122644;27;20246;-55
2021/12/31 05:37:08;;;;;;;10.40;6.00;;;12.10;99.90;;;;;;5090777;28;20277;-55
2021/12/31 05:39:36;;;;;;;14.17;5.70;;;12.00;99.90;;;;;;5091911;28;20204;-55
2021/12/31 05:42:05;;;;;;;10.53;6.37;;;12.10;99.90;;;;;;5091722;28;20204;-54
2021/12/31 05:44:33;;;;;;;11.77;6.03;;;12.00;99.90;;;;;;5091983;28;20212;-53
2021/12/31 05:47:01;;;;;;;14.37;6.17;;;12.00;99.90;;;;;;5091871;28;20228;-56
2021/12/31 05:49:30;;;;;;;13.30;6.57;;;12.00;99.90;;;;;;5099359;28;20231;-54
2021/12/31 05:51:58;;;;;;;12.77;6.23;;;12.00;99.90;;;;;;5112302;28;20200;-54
2021/12/31 05:54:27;;;;;;;12.87;6.20;;;12.00;99.90;;;;;;5105224;28;20622;-54
2021/12/31 05:56:56;;;;;;;12.30;6.23;;;12.00;99.90;;;;;;5111236;28;20224;-53
2021/12/31 05:59:25;;;;;;;13.07;6.17;;;12.00;99.90;;;;;;5111094;28;20196;-54
2021/12/31 06:01:53;;;;;;;10.97;5.87;;;12.00;99.90;;;;;;5111760;28;20559;-54
2021/12/31 06:04:22;;;;;;;10.90;5.97;;;11.90;99.90;;;;;;5111836;28;20203;-55
2021/12/31 06:06:51;;;;;;;10.97;5.60;;;12.00;99.90;;;;;;5115543;27;20254;-52
2021/12/31 06:09:19;;;;;;;8.80;5.27;;;12.00;99.90;;;;;;5132407;27;20206;-54
2021/12/31 06:11:48;;;;;;;12.73;5.67;;;12.00;99.90;;;;;;5108189;27;20730;-54
2021/12/31 06:14:17;;;;;;;15.50;6.23;;;12.00;99.90;;;;;;5091544;28;20212;-55
2021/12/31 06:16:46;;;;;;;9.77;5.77;;;12.00;99.90;;;;;;5092164;28;20220;-55
2021/12/31 06:19:15;;;;;;;9.20;5.60;;;12.00;99.90;;;;;;5111624;28;20707;-55
2021/12/31 06:21:46;;;;;;;11.07;5.40;;;12.00;99.90;;;;;;5111980;28;20226;-54
2021/12/31 06:24:14;;;;;;;9.67;5.40;;;11.90;99.90;;;;;;5111190;28;20203;-55
2021/12/31 06:26:42;;;;;;;15.90;5.67;;;11.90;99.90;;;;;;5112306;28;20231;-55
2021/12/31 06:29:12;;;;;;;11.13;5.50;;;12.00;99.90;;;;;;5131449;27;20234;-54
2021/12/31 06:31:40;;;;;;;14.70;6.10;;;11.90;99.90;;;;;;5115245;28;20268;-55
2021/12/31 06:34:08;;;;;;;10.40;5.40;;;11.90;99.90;;;;;;5113500;28;20294;-56
2021/12/31 06:36:36;;;;;;;10.10;5.47;;;12.00;99.90;;;;;;5117574;28;20227;-52
2021/12/31 06:39:04;;;;;;;10.63;5.80;;;11.90;99.90;;;;;;5118577;28;20233;-54
2021/12/31 06:41:32;;;;;;;10.80;5.37;;;11.90;99.90;;;;;;5117816;28;20231;-54
2021/12/31 06:44:00;;;;;;;9.87;5.80;;;11.90;99.90;;;;;;5118091;28;20211;-54
2021/12/31 06:46:30;;;;;;;11.90;5.50;;;11.90;99.90;;;;;;5117957;28;20220;-54
2021/12/31 06:48:58;;;;;;;12.73;5.97;;;11.90;99.90;;;;;;5118349;28;20219;-54
2021/12/31 06:51:26;;;;;;;10.07;5.73;;;11.90;99.90;;;;;;5117768;28;20207;-53
2021/12/31 06:53:54;;;;;;;9.97;5.53;;;11.90;99.90;;;;;;5117841;28;20203;-54
2021/12/31 06:56:22;;;;;;;11.00;5.60;;;11.80;99.90;;;;;;5117904;28;20219;-54
2021/12/31 06:58:50;;;;;;;8.63;4.80;;;11.90;99.90;;;;;;5116977;28;20195;-54
2021/12/31 07:01:19;;;;;;;13.17;6.23;;;11.90;99.90;;;;;;5108812;28;20204;-54
2021/12/31 07:03:48;;;;;;;9.50;5.33;;;11.80;99.90;;;;;;5118038;28;20596;-55
2021/12/31 07:06:17;;;;;;;8.17;4.90;;;11.90;99.90;;;;;;5117901;28;20227;-53
2021/12/31 07:08:45;;;;;;;8.77;5.10;;;11.90;99.90;;;;;;5119169;28;20215;-53
2021/12/31 07:11:16;;;;;;;12.67;6.07;;;11.90;99.90;;;;;;5121014;28;20203;-54
2021/12/31 07:13:44;;;;;;;11.37;5.10;;;11.90;99.90;;;;;;5120706;28;20225;-54
2021/12/31 07:16:12;;;;;;;8.10;5.30;;;11.90;99.90;;;;;;5103721;28;20286;-54
2021/12/31 07:18:40;;;;;;;6.87;5.20;;;11.90;99.90;;;;;;5099923;28;20230;-51
2021/12/31 07:21:10;;;;;;;11.93;5.73;;;11.90;99.90;;;;;;5099659;28;20204;-54
2021/12/31 07:23:38;;;;;;;9.53;5.27;;;11.90;99.90;;;;;;5098046;28;20258;-54
2021/12/31 07:26:07;;;;;;;9.33;5.20;;;11.90;99.90;;;;;;5098608;28;20720;-56
2021/12/31 07:28:35;;;;;;;9.30;5.10;;;11.90;99.90;;;;;;5117207;28;20241;-53
2021/12/31 07:31:04;;;;;;;11.23;5.17;;;11.90;99.90;;;;;;5117391;28;20664;-55
2021/12/31 07:33:32;;;;;;;9.03;5.30;;;11.90;99.90;;;;;;5108216;28;20210;-54
2021/12/31 07:36:00;;;;;;;9.90;5.50;;;11.80;99.90;;;;;;5107739;28;20219;-56
2021/12/31 07:38:34;;;;;;;8.20;4.90;;;11.80;99.90;;;;;;5104923;28;20200;-54
2021/12/31 07:41:03;;;;;;;10.50;5.00;;;11.80;99.90;;;;;;5106233;28;20200;-55
2021/12/31 07:43:32;;;;;;;6.90;5.10;;;11.80;99.90;;;;;;5101117;28;20314;-54
2021/12/31 07:46:00;;;;;;;10.43;5.33;;;11.80;99.90;;;;;;5102974;28;20267;-54
2021/12/31 07:48:28;;;;;;;10.67;5.70;;;11.70;99.90;;;;;;5102329;28;20219;-53
2021/12/31 07:50:56;;;;;;;9.50;5.60;;;11.70;99.90;;;;;;5098198;28;20258;-53
2021/12/31 07:53:24;;;;;;;8.20;5.17;;;11.70;99.90;;;;;;5095871;28;20258;-53
2021/12/31 07:55:54;;;;;;;11.17;5.10;;;11.70;99.90;;;;;;5095353;28;20224;-53
2021/12/31 07:58:24;;;;;;;8.07;4.67;;;11.70;99.90;;;;;;5092995;28;20201;-54
2021/12/31 08:00:52;;;;;;;10.10;4.87;;;11.80;99.90;;;;;;5100215;27;20212;-53
2021/12/31 08:03:20;;;;;;;9.27;5.60;;;11.70;99.90;;;;;;5097376;28;20200;-56
2021/12/31 08:05:48;;;;;;;9.57;5.10;;;11.80;99.90;;;;;;5092686;28;20220;-54
2021/12/31 08:08:16;;;;;;;9.50;5.03;;;11.80;99.90;;;;;;5097671;28;20315;-54
2021/12/31 08:10:44;;;;;;;7.73;4.80;;;11.80;99.90;;;;;;5103927;28;20204;-53
2021/12/31 08:13:25;;;;;;;9.43;4.50;;;11.80;99.90;;;;;;5113408;28;20203;-54
2021/12/31 08:15:53;;;;;;;11.47;5.20;;;11.80;99.90;;;;;;5100695;27;20715;-54
2021/12/31 08:18:22;;;;;;;10.80;5.30;;;11.80;99.90;;;;;;5103285;27;20201;-55
2021/12/31 08:20:50;;;;;;;8.97;4.90;;;11.80;99.90;;;;;;5100770;28;20266;-53
2021/12/31 08:23:18;;;;;;;12.20;5.03;;;11.70;99.90;;;;;;5112730;28;20559;-54
2021/12/31 08:25:47;;;;;;;10.60;5.30;;;11.70;99.90;;;;;;5113525;28;20228;-53
2021/12/31 08:28:15;;;;;;;8.47;5.60;;;11.70;99.90;;;;;;5109652;28;20224;-52
2021/12/31 08:30:44;;;;;;;8.93;5.27;;;11.70;99.90;;;;;;5112952;28;20207;-55
2021/12/31 08:33:12;;;;;;;9.93;5.60;;;11.70;99.90;;;;;;5100364;28;20236;-56
2021/12/31 08:35:40;;;;;;;10.17;5.20;;;11.70;99.90;;;;;;5095838;28;20224;-54
2021/12/31 08:38:08;;;;;;;8.93;5.37;;;11.70;99.90;;;;;;5101069;28;20196;-57
2021/12/31 08:40:37;;;;;;;9.07;5.37;;;11.70;99.90;;;;;;5108910;28;20269;-55
2021/12/31 08:43:05;;;;;;;10.83;5.80;;;11.70;99.90;;;;;;5101179;28;20199;-55
2021/12/31 08:45:33;;;;;;;9.13;5.33;;;11.70;99.90;;;;;;5096681;28;20224;-53
2021/12/31 08:48:05;;;;;;;6.73;5.67;;;11.70;99.90;;;;;;5113116;28;20206;-54
2021/12/31 08:50:34;;;;;;;9.80;5.63;;;11.70;99.90;;;;;;5113302;28;20237;-55
2021/12/31 08:53:03;;;;;;;7.73;5.60;;;11.70;99.90;;;;;;5111169;27;20207;-54
2021/12/31 08:55:31;;;;;;;12.43;6.40;;;11.70;99.90;;;;;;5106838;27;20256;-55
2021/12/31 08:57:59;;;;;;;12.10;6.17;;;11.70;99.90;;;;;;5099968;28;20256;-54
2021/12/31 09:00:27;;;;;;;8.07;5.43;;;11.80;99.90;;;;;;5102006;28;20211;-52
2021/12/31 09:02:55;;;;;;;9.40;5.63;;;11.80;99.90;;;;;;5106491;28;20208;-53
2021/12/31 09:05:25;;;;;;;9.70;5.40;;;11.90;99.90;;;;;;5103537;28;20565;-55
2021/12/31 09:07:53;;;;;;;9.43;5.70;;;11.90;99.90;;;;;;5116629;27;20256;-55
2021/12/31 09:10:21;;;;;;;10.27;5.90;;;11.90;99.90;;;;;;5112899;28;20215;-55
2021/12/31 09:12:50;;;;;;;8.90;5.23;;;12.00;99.90;;;;;;5097294;28;20205;-55
2021/12/31 09:15:19;;;;;;;8.50;5.73;;;12.00;99.90;;;;;;5108546;27;20227;-53
2021/12/31 09:17:48;;;;;;;9.17;5.60;;;12.00;99.90;;;;;;5112023;28;20483;-54
2021/12/31 09:20:17;;;;;;;9.63;5.87;;;12.00;99.90;;;;;;5111855;28;20246;-55
2021/12/31 09:22:46;;;;;;;10.50;5.40;;;12.00;99.90;;;;;;5112049;28;20212;-53
2021/12/31 09:25:16;;;;;;;8.27;5.10;;;12.00;99.90;;;;;;5111987;28;20219;-55
2021/12/31 09:27:44;;;;;;;7.40;5.17;;;12.10;99.90;;;;;;5111642;28;20211;-56
2021/12/31 09:30:13;;;;;;;8.13;5.27;;;12.10;99.90;;;;;;5110546;28;20216;-54
2021/12/31 09:32:42;;;;;;;7.97;5.33;;;12.00;99.90;;;;;;5111911;28;20292;-55
2021/12/31 09:35:10;;;;;;;12.03;5.50;;;12.10;99.90;;;;;;5111529;28;20206;-57
2021/12/31 09:37:39;;;;;;;7.60;4.60;;;12.20;99.90;;;;;;5112293;28;20592;-54
2021/12/31 09:40:11;;;;;;;7.90;4.70;;;12.10;99.90;;;;;;5107828;28;20200;-54
2021/12/31 09:42:46;;;;;;;7.40;4.37;;;12.10;99.90;;;;;;5111827;28;20635;-54
2021/12/31 09:45:16;;;;;;;8.90;4.90;;;12.20;99.90;;;;;;5111682;28;20237;-56
2021/12/31 09:47:44;;;;;;;11.00;5.07;;;12.30;99.90;;;;;;5111776;28;20223;-53
2021/12/31 09:50:12;;;;;;;13.07;5.00;;;12.30;99.90;;;;;;5108344;28;20487;-55
2021/12/31 09:52:41;;;;;;;7.07;5.00;;;12.30;99.90;;;;;;5112855;27;20238;-54
2021/12/31 09:55:11;;;;;;;10.33;4.83;;;12.30;99.90;;;;;;5111819;28;20204;-55
2021/12/31 09:57:39;;;;;;;7.10;4.57;;;12.30;99.90;;;;;;5110046;28;20290;-57
2021/12/31 10:00:08;;;;;;;8.07;4.20;;;12.30;99.90;;;;;;5111272;28;20276;-55
2021/12/31 10:02:36;;;;;;;7.23;4.30;;;12.30;99.90;;;;;;5111237;28;20260;-55
2021/12/31 10:05:05;;;;;;;5.47;3.67;;;12.30;99.90;;;;;;5111490;28;20222;-55
2021/12/31 10:07:33;;;;;;;7.17;4.17;;;12.40;99.90;;;;;;5102835;28;20207;-56
2021/12/31 10:10:12;;;;;;;9.60;4.30;;;12.40;99.90;;;;;;5107788;28;20582;-54
2021/12/31 10:12:48;;;;;;;5.47;3.60;;;12.50;99.90;;;;;;5098109;28;20211;-54
2021/12/31 10:15:17;;;;;;;5.30;3.67;;;12.50;99.90;;;;;;5106324;28;20219;-55
2021/12/31 10:17:46;;;;;;;5.30;3.70;;;12.50;99.90;;;;;;5111006;28;20237;-52
2021/12/31 10:20:15;;;;;;;4.93;3.30;;;12.50;99.90;;;;;;5106780;28;20214;-54
2021/12/31 10:22:44;;;;;;;8.80;4.27;;;12.40;99.90;;;;;;5103759;28;20693;-55
2021/12/31 10:25:26;;;;;;;4.50;3.40;;;12.50;99.90;;;;;;5110860;28;20214;-52
2021/12/31 10:28:09;;;;;;;8.07;3.43;;;12.50;99.90;;;;;;5110863;28;20659;-55
2021/12/31 10:30:37;;;;;;;4.50;3.50;;;12.40;99.90;;;;;;5111028;28;20296;-52
2021/12/31 10:33:06;;;;;;;3.83;3.20;;;12.30;99.90;;;;;;5110403;28;20207;-54
2021/12/31 10:35:41;;;;;;;4.73;3.50;;;12.30;99.90;;;;;;5106358;28;20231;-56
2021/12/31 10:38:12;;;;;;;6.00;3.20;;;12.30;99.90;;;;;;5110244;28;20256;-54
2021/12/31 10:40:44;;;;;;;7.20;3.57;;;12.30;99.90;;;;;;5111645;28;20306;-54
2021/12/31 10:43:21;;;;;;;8.20;5.33;;;12.30;99.90;;;;;;5107781;28;20231;-54
2021/12/31 10:45:57;;;;;;;5.63;3.40;;;12.30;99.90;;;;;;5111055;28;20249;-54
2021/12/31 10:48:39;;;;;;;4.70;3.30;;;12.30;99.90;;;;;;5110682;28;20215;-54
2021/12/31 10:51:08;;;;;;;5.90;3.70;;;12.30;99.90;;;;;;5108290;28;20219;-55
2021/12/31 10:53:37;;;;;;;4.47;3.37;;;12.30;99.90;;;;;;5110904;28;20196;-53
2021/12/31 10:56:08;;;;;;;5.20;3.23;;;12.30;99.90;;;;;;5110824;28;20231;-54
2021/12/31 10:58:38;;;;;;;7.50;3.17;;;12.40;99.90;;;;;;5110157;28;20207;-54
2021/12/31 11:01:08;;;;;;;4.30;3.10;;;12.30;99.90;;;;;;5108007;28;20728;-54
2021/12/31 11:03:39;;;;;;;4.70;3.00;;;12.30;99.90;;;;;;5106845;28;20218;-56
2021/12/31 11:06:12;;;;;;;6.93;3.67;;;12.30;99.90;;;;;;5110923;28;20715;-55
2021/12/31 11:08:45;;;;;;;4.57;3.00;;;12.20;99.90;;;;;;5110236;28;20204;-54
2021/12/31 11:11:15;;;;;;;6.13;3.10;;;12.20;99.90;;;;;;5110692;28;20228;-57
2021/12/31 11:13:46;;;;;;;4.80;2.80;;;12.30;99.90;;;;;;5104503;28;20204;-54
2021/12/31 11:16:15;;;;;;;3.93;2.83;;;12.40;99.90;;;;;;5096520;28;20462;-55
2021/12/31 11:18:45;;;;;;;4.33;3.00;;;12.50;99.90;;;;;;5097748;28;20197;-54
2021/12/31 11:21:16;;;;;;;6.17;2.83;;;12.60;99.90;;;;;;5108535;28;20203;-55
2021/12/31 11:23:44;;;;;;;4.93;2.93;;;12.60;99.90;;;;;;5113377;28;20208;-55
2021/12/31 11:26:13;;;;;;;5.23;2.80;;;12.60;99.90;;;;;;5111333;28;20227;-55
2021/12/31 11:28:44;;;;;;;4.90;2.77;;;12.70;99.90;;;;;;5113238;28;20261;-55
2021/12/31 11:31:26;;;;;;;4.60;2.87;;;12.80;99.90;;;;;;5116708;28;20220;-54
2021/12/31 11:34:14;;;;;;;3.97;2.87;;;12.70;99.90;;;;;;5110216;28;20625;-56
2021/12/31 11:36:44;;;;;;;3.27;2.53;;;12.70;99.90;;;;;;5112237;28;20219;-56
2021/12/31 11:39:19;;;;;;;4.33;2.57;;;12.80;99.90;;;;;;5109441;28;20207;-56
2021/12/31 11:41:53;;;;;;;4.57;2.93;;;12.90;99.90;;;;;;5100234;28;20625;-55
2021/12/31 11:44:23;;;;;;;5.33;3.23;;;13.00;99.90;;;;;;5111600;28;20622;-54
2021/12/31 11:47:09;;;;;;;5.03;2.40;;;12.90;99.90;;;;;;5110158;28;20723;-54
2021/12/31 11:49:38;;;;;;;4.17;2.60;;;12.80;99.90;;;;;;5108690;28;20204;-54
2021/12/31 11:52:08;;;;;;;5.00;2.47;;;12.80;99.90;;;;;;5112727;28;20256;-55
2021/12/31 11:54:38;;;;;;;4.00;2.60;;;12.90;99.90;;;;;;5108610;27;20217;-55
2021/12/31 11:57:17;;;;;;;5.47;2.63;;;12.80;99.90;;;;;;5113170;28;20231;-54
2021/12/31 11:59:51;;;;;;;4.57;2.57;;;12.90;99.90;;;;;;5104811;28;20204;-55
2021/12/31 12:02:33;;;;;;;4.90;2.67;;;13.00;99.90;;;;;;5105763;28;20213;-55
2021/12/31 12:05:14;;;;;;;5.33;2.80;;;13.00;99.90;;;;;;5114404;28;20215;-53
2021/12/31 12:07:46;;;;;;;5.53;2.60;;;13.00;99.90;;;;;;5114082;28;20210;-56
2021/12/31 12:10:19;;;;;;;3.73;2.50;;;13.00;99.90;;;;;;5098223;28;20228;-52
2021/12/31 12:12:51;;;;;;;5.57;2.40;;;13.00;99.90;;;;;;5101491;28;20245;-58
2021/12/31 12:15:33;;;;;;;3.60;2.50;;;13.00;99.90;;;;;;5114594;28;20266;-57
2021/12/31 12:18:06;;;;;;;3.30;2.60;;;12.90;99.90;;;;;;5115336;28;20207;-55
2021/12/31 12:20:41;;;;;;;4.50;2.80;;;12.90;99.90;;;;;;5113035;28;20210;-59
2021/12/31 12:23:23;;;;;;;2.90;2.30;;;12.90;99.90;;;;;;5104000;28;20256;-55
2021/12/31 12:25:51;;;;;;;6.20;3.13;;;12.90;99.90;;;;;;5111288;28;20695;-57
2021/12/31 12:28:21;;;;;;;5.10;2.50;;;12.90;99.90;;;;;;5115822;27;20233;-54
2021/12/31 12:31:04;;;;;;;5.70;2.77;;;12.80;99.90;;;;;;5115665;28;20650;-55
2021/12/31 12:33:32;;;;;;;5.13;2.97;;;12.80;99.90;;;;;;5113869;28;20215;-54
2021/12/31 12:36:01;;;;;;;5.83;3.33;;;12.80;99.90;;;;;;5114732;28;20226;-54
2021/12/31 12:38:33;;;;;;;4.77;2.43;;;12.80;99.90;;;;;;5115147;28;20211;-55
2021/12/31 12:41:03;;;;;;;4.57;2.60;;;12.70;99.90;;;;;;5117052;27;20253;-56
2021/12/31 12:43:35;;;;;;;5.70;2.60;;;12.70;99.90;;;;;;5113151;28;20628;-54
2021/12/31 12:46:06;;;;;;;2.83;2.40;;;12.70;99.90;;;;;;5110634;28;20277;-55
2021/12/31 12:48:38;;;;;;;4.80;2.50;;;12.70;99.90;;;;;;5112464;28;20295;-56
2021/12/31 12:51:07;;;;;;;4.40;2.83;;;12.60;99.90;;;;;;5112582;28;20228;-56
2021/12/31 12:53:38;;;;;;;6.43;2.40;;;12.60;99.90;;;;;;5111850;28;20229;-55
2021/12/31 12:56:09;;;;;;;2.77;2.23;;;12.60;99.90;;;;;;5103693;28;20254;-53